createdAt,value
2018-05-23T00:00:20.644Z,14.05
2018-05-23T00:01:20.572Z,14.11
2018-05-23T00:02:20.498Z,14.05
2018-05-23T00:03:20.427Z,13.98
2018-05-23T00:04:20.354Z,13.99
2018-05-23T00:05:20.277Z,13.99
2018-05-23T00:06:20.203Z,13.94
2018-05-23T00:07:20.129Z,13.92
2018-05-23T00:08:20.058Z,13.91
2018-05-23T00:09:19.981Z,14.01
2018-05-23T00:10:19.908Z,14.03
2018-05-23T00:11:19.833Z,13.99
2018-05-23T00:12:19.759Z,14.01
2018-05-23T00:13:19.687Z,13.99
2018-05-23T00:14:19.613Z,13.92
2018-05-23T00:15:19.537Z,13.86
2018-05-23T00:16:19.468Z,13.80
2018-05-23T00:17:19.390Z,13.86
2018-05-23T00:18:19.321Z,13.80
2018-05-23T00:19:19.242Z,13.77
2018-05-23T00:20:19.168Z,13.76
2018-05-23T00:21:19.094Z,13.71
2018-05-23T00:22:19.021Z,13.80
2018-05-23T00:23:18.947Z,13.77
2018-05-23T00:24:18.878Z,13.68
2018-05-23T00:25:18.800Z,13.71
2018-05-23T00:26:18.725Z,13.76
2018-05-23T00:27:18.651Z,13.73
2018-05-23T00:28:18.580Z,13.71
2018-05-23T00:29:18.584Z,13.73
2018-05-23T00:30:18.429Z,13.83
2018-05-23T00:31:18.355Z,13.84
2018-05-23T00:32:18.281Z,13.89
2018-05-23T00:33:18.208Z,13.83
2018-05-23T00:34:18.133Z,13.83
2018-05-23T00:35:18.058Z,13.92
2018-05-23T00:36:17.985Z,13.98
2018-05-23T01:05:49.962Z,13.99
2018-05-23T01:59:41.992Z,14.13
2018-05-23T02:07:33.971Z,14.21
2018-05-23T02:08:33.593Z,14.24
2018-05-23T02:47:59.059Z,14.50
2018-05-23T02:48:58.987Z,14.47
2018-05-23T02:49:58.911Z,14.50
2018-05-23T05:20:03.436Z,15.31
2018-05-23T05:22:03.289Z,15.21
2018-05-23T05:23:03.216Z,15.27
2018-05-23T08:33:10.684Z,18.80
2018-05-23T08:34:10.616Z,18.82
2018-05-23T08:35:10.543Z,18.90
2018-05-23T08:36:10.473Z,18.95
2018-05-23T08:37:10.402Z,18.90
2018-05-23T08:38:10.332Z,18.69
2018-05-23T08:39:10.263Z,18.80
2018-05-23T08:40:10.190Z,18.86
2018-05-23T08:41:10.121Z,18.90
2018-05-23T08:42:10.051Z,18.90
2018-05-23T08:43:09.982Z,18.87
2018-05-23T08:44:09.910Z,18.86
2018-05-23T08:45:09.840Z,18.92
2018-05-23T08:46:09.804Z,18.98
2018-05-23T08:47:09.701Z,19.11
2018-05-23T08:48:09.636Z,19.01
2018-05-23T08:49:09.560Z,19.08
2018-05-23T08:50:09.492Z,19.27
2018-05-23T08:51:09.421Z,19.42
2018-05-23T08:52:09.350Z,19.51
2018-05-23T08:53:09.280Z,19.55
2018-05-23T08:54:09.210Z,19.71
2018-05-23T08:55:09.139Z,19.76
2018-05-23T08:56:09.073Z,19.94
2018-05-23T08:57:09.001Z,20.03
2018-05-23T08:58:08.931Z,20.10
2018-05-23T08:59:08.862Z,20.16
2018-05-23T09:00:08.790Z,20.18
2018-05-23T09:01:08.721Z,20.12
2018-05-23T09:02:08.652Z,20.16
2018-05-23T09:03:08.583Z,20.08
2018-05-23T09:04:08.513Z,20.09
2018-05-23T09:05:08.444Z,19.93
2018-05-23T09:06:08.374Z,19.91
2018-05-23T09:07:08.304Z,19.88
2018-05-23T09:08:08.235Z,20.05
2018-05-23T09:09:08.167Z,20.13
2018-05-23T09:10:08.099Z,20.12
2018-05-23T09:11:08.029Z,20.20
2018-05-23T09:12:08.057Z,20.31
2018-05-23T09:13:07.888Z,20.40
2018-05-23T09:14:07.869Z,20.46
2018-05-23T09:15:07.749Z,20.43
2018-05-23T09:16:07.681Z,20.43
2018-05-23T09:17:07.611Z,20.57
2018-05-23T09:18:07.541Z,20.66
2018-05-23T09:19:07.474Z,20.80
2018-05-23T09:20:07.402Z,20.86
2018-05-23T09:21:07.332Z,20.80
2018-05-23T09:22:07.263Z,20.64
2018-05-23T09:23:07.194Z,20.69
2018-05-23T09:24:07.124Z,20.84
2018-05-23T09:25:07.055Z,20.79
2018-05-23T09:26:06.987Z,20.99
2018-05-23T09:27:06.917Z,20.93
2018-05-23T09:28:06.848Z,20.80
2018-05-23T09:29:06.779Z,20.82
2018-05-23T09:30:06.710Z,20.91
2018-05-23T09:31:06.639Z,20.91
2018-05-23T09:32:06.580Z,21.02
2018-05-23T09:33:06.502Z,21.17
2018-05-23T09:34:06.432Z,21.12
2018-05-23T09:35:06.369Z,21.08
2018-05-23T09:36:06.295Z,21.12
2018-05-23T09:37:06.225Z,21.30
2018-05-23T09:38:06.156Z,21.41
2018-05-23T09:39:06.177Z,21.39
2018-05-23T09:40:06.018Z,21.56
2018-05-23T09:41:05.988Z,21.59
2018-05-23T09:42:05.880Z,21.57
2018-05-23T09:43:05.813Z,21.35
2018-05-23T09:44:05.742Z,21.29
2018-05-23T09:45:05.737Z,21.24
2018-05-23T09:46:05.605Z,21.26
2018-05-23T09:47:05.542Z,21.20
2018-05-23T09:48:05.466Z,21.09
2018-05-23T09:49:05.398Z,21.09
2018-05-23T09:50:05.329Z,21.12
2018-05-23T09:51:05.260Z,21.27
2018-05-23T09:52:05.191Z,21.41
2018-05-23T09:53:05.122Z,21.35
2018-05-23T09:54:05.054Z,21.46
2018-05-23T09:55:05.020Z,21.39
2018-05-23T09:56:04.915Z,21.51
2018-05-23T09:57:04.846Z,21.61
2018-05-23T09:58:04.779Z,21.60
2018-05-23T09:59:04.710Z,21.75
2018-05-23T10:00:04.640Z,21.84
2018-05-23T10:01:04.571Z,21.86
2018-05-23T10:02:04.503Z,21.89
2018-05-23T10:03:04.435Z,21.95
2018-05-23T10:04:04.363Z,21.95
2018-05-23T10:05:04.296Z,22.10
2018-05-23T10:06:04.228Z,22.30
2018-05-23T10:07:04.161Z,22.41
2018-05-23T10:08:04.091Z,22.53
2018-05-23T10:09:04.023Z,22.42
2018-05-23T10:10:03.957Z,22.39
2018-05-23T10:11:03.885Z,22.53
2018-05-23T10:12:03.818Z,22.52
2018-05-23T10:13:03.755Z,22.38
2018-05-23T10:14:03.681Z,22.49
2018-05-23T10:15:03.614Z,22.35
2018-05-23T10:16:03.545Z,22.65
2018-05-23T10:17:03.476Z,22.72
2018-05-23T10:18:03.415Z,22.69
2018-05-23T10:19:03.342Z,22.47
2018-05-23T10:20:03.273Z,22.53
2018-05-23T10:21:03.205Z,22.63
2018-05-23T10:22:03.137Z,22.63
2018-05-23T10:23:03.070Z,22.79
2018-05-23T10:24:03.000Z,22.87
2018-05-23T10:25:02.937Z,22.69
2018-05-23T10:26:02.866Z,22.79
2018-05-23T10:27:02.799Z,22.67
2018-05-23T10:28:02.727Z,22.79
2018-05-23T10:29:02.662Z,22.62
2018-05-23T10:30:02.593Z,22.69
2018-05-23T10:31:02.524Z,22.74
2018-05-23T10:32:02.457Z,22.83
2018-05-23T10:33:02.398Z,22.77
2018-05-23T10:34:02.319Z,22.96
2018-05-23T10:35:02.254Z,22.75
2018-05-23T10:36:02.184Z,22.57
2018-05-23T10:37:02.116Z,22.54
2018-05-23T10:38:02.049Z,22.50
2018-05-23T10:39:02.073Z,22.46
2018-05-23T10:40:01.912Z,22.38
2018-05-23T10:41:01.866Z,22.30
2018-05-23T10:42:01.777Z,22.46
2018-05-23T10:43:01.708Z,22.41
2018-05-23T10:44:01.642Z,22.52
2018-05-23T10:45:01.572Z,22.65
2018-05-23T10:46:01.504Z,22.84
2018-05-23T10:47:01.435Z,23.00
2018-05-23T10:48:01.364Z,23.08
2018-05-23T10:49:01.355Z,23.17
2018-05-23T10:50:01.231Z,23.22
2018-05-23T10:51:01.168Z,23.23
2018-05-23T10:52:01.105Z,23.15
2018-05-23T10:53:01.026Z,23.11
2018-05-23T10:54:00.958Z,23.11
2018-05-23T10:55:00.892Z,23.17
2018-05-23T10:56:00.821Z,23.29
2018-05-23T10:57:00.764Z,23.38
2018-05-23T10:58:00.688Z,23.42
2018-05-23T10:59:00.622Z,23.37
2018-05-23T11:00:00.552Z,23.24
2018-05-23T11:01:00.489Z,23.08
2018-05-23T11:02:00.419Z,22.96
2018-05-23T11:03:00.449Z,23.04
2018-05-23T11:04:00.279Z,23.05
2018-05-23T11:05:00.213Z,23.23
2018-05-23T11:06:00.188Z,23.35
2018-05-23T11:07:00.077Z,23.68
2018-05-23T11:08:00.010Z,23.65
2018-05-23T11:08:59.962Z,23.75
2018-05-23T11:09:59.875Z,23.75
2018-05-23T11:10:59.808Z,23.65
2018-05-23T11:11:59.739Z,23.78
2018-05-23T11:12:59.676Z,23.61
2018-05-23T11:13:59.612Z,23.82
2018-05-23T11:14:59.591Z,24.01
2018-05-23T11:15:59.473Z,23.93
2018-05-23T11:16:59.406Z,23.90
2018-05-23T11:17:59.338Z,23.86
2018-05-23T11:18:59.273Z,24.01
2018-05-23T11:19:59.205Z,24.08
2018-05-23T11:20:59.138Z,24.30
2018-05-23T11:21:59.073Z,24.50
2018-05-23T11:22:59.008Z,24.80
2018-05-23T11:23:58.938Z,24.90
2018-05-23T11:24:58.873Z,24.91
2018-05-23T11:25:58.807Z,24.83
2018-05-23T11:26:58.743Z,24.82
2018-05-23T11:27:58.673Z,24.79
2018-05-23T11:28:58.610Z,24.93
2018-05-23T11:29:58.542Z,24.82
2018-05-23T11:30:58.477Z,24.93
2018-05-23T11:31:58.411Z,25.17
2018-05-23T11:32:58.345Z,25.32
2018-05-23T11:33:58.279Z,25.27
2018-05-23T11:34:58.216Z,25.02
2018-05-23T11:35:58.147Z,25.02
2018-05-23T11:36:58.082Z,25.05
2018-05-23T11:37:58.018Z,25.01
2018-05-23T11:38:57.953Z,25.02
2018-05-23T11:39:57.887Z,25.28
2018-05-23T11:40:57.828Z,25.49
2018-05-23T11:41:57.757Z,26.02
2018-05-23T11:42:57.693Z,25.72
2018-05-23T11:43:57.628Z,25.34
2018-05-23T11:44:57.564Z,24.83
2018-05-23T11:45:57.498Z,24.79
2018-05-23T11:46:57.434Z,24.37
2018-05-23T11:47:57.370Z,24.25
2018-05-23T11:48:57.306Z,24.88
2018-05-23T11:49:57.241Z,25.62
2018-05-23T11:50:57.176Z,26.15
2018-05-23T11:51:57.111Z,26.61
2018-05-23T11:52:57.053Z,26.07
2018-05-23T11:53:56.984Z,25.87
2018-05-23T11:54:56.920Z,26.20
2018-05-23T11:55:56.857Z,26.34
2018-05-23T11:56:56.793Z,26.18
2018-05-23T11:57:56.730Z,26.35
2018-05-23T11:58:56.666Z,26.55
2018-05-23T11:59:56.602Z,27.14
2018-05-23T12:00:56.541Z,27.24
2018-05-23T12:01:56.553Z,27.32
2018-05-23T12:02:56.416Z,26.61
2018-05-23T12:03:56.354Z,26.08
2018-05-23T12:04:56.290Z,25.84
2018-05-23T12:05:56.230Z,25.27
2018-05-23T12:06:56.168Z,24.97
2018-05-23T12:07:56.104Z,24.85
2018-05-23T12:08:56.041Z,24.78
2018-05-23T12:09:55.978Z,24.66
2018-05-23T12:10:55.917Z,24.45
2018-05-23T12:11:55.850Z,24.22
2018-05-23T12:12:55.788Z,24.20
2018-05-23T12:13:55.725Z,24.08
2018-05-23T12:14:55.662Z,24.04
2018-05-23T12:15:55.599Z,24.17
2018-05-23T12:16:55.534Z,24.27
2018-05-23T12:17:55.466Z,24.16
2018-05-23T12:18:55.403Z,24.29
2018-05-23T12:19:55.337Z,25.04
2018-05-23T12:20:55.273Z,25.92
2018-05-23T12:21:55.208Z,26.25
2018-05-23T12:22:55.144Z,27.12
2018-05-23T12:23:55.079Z,27.70
2018-05-23T12:24:55.015Z,28.19
2018-05-23T12:25:54.954Z,28.84
2018-05-23T12:26:54.888Z,28.75
2018-05-23T12:27:54.824Z,28.44
2018-05-23T12:28:54.764Z,28.80
2018-05-23T12:29:54.701Z,29.00
2018-05-23T12:30:54.640Z,29.00
2018-05-23T12:31:54.578Z,28.80
2018-05-23T12:32:54.517Z,28.73
2018-05-23T12:33:54.458Z,29.09
2018-05-23T12:34:54.397Z,29.44
2018-05-23T12:35:54.337Z,29.77
2018-05-23T12:36:54.278Z,28.66
2018-05-23T12:37:54.222Z,28.59
2018-05-23T12:38:54.160Z,28.96
2018-05-23T12:39:54.101Z,29.48
2018-05-23T12:40:54.048Z,28.83
2018-05-23T12:41:53.983Z,27.72
2018-05-23T12:42:53.925Z,27.08
2018-05-23T12:43:53.865Z,26.69
2018-05-23T12:44:53.807Z,26.07
2018-05-23T12:45:53.747Z,25.90
2018-05-23T12:46:53.761Z,25.86
2018-05-23T12:47:53.627Z,25.72
2018-05-23T12:48:53.569Z,25.47
2018-05-23T12:49:53.506Z,25.01
2018-05-23T12:50:53.446Z,24.76
2018-05-23T12:51:53.382Z,24.78
2018-05-23T12:52:53.320Z,24.64
2018-05-23T12:53:53.259Z,24.78
2018-05-23T12:54:53.197Z,25.04
2018-05-23T12:55:53.132Z,25.90
2018-05-23T12:56:53.072Z,26.84
2018-05-23T12:57:53.007Z,27.34
2018-05-23T12:58:52.945Z,27.89
2018-05-23T12:59:52.881Z,28.87
2018-05-23T13:00:52.818Z,29.04
2018-05-23T13:01:52.756Z,29.47
2018-05-23T13:02:52.695Z,29.69
2018-05-23T13:03:52.631Z,30.21
2018-05-23T13:04:52.571Z,30.56
2018-05-23T13:05:52.515Z,30.83
2018-05-23T13:06:52.453Z,30.30
2018-05-23T13:07:52.396Z,30.12
2018-05-23T13:08:52.333Z,30.24
2018-05-23T13:09:52.274Z,30.71
2018-05-23T13:10:52.218Z,30.93
2018-05-23T13:11:52.156Z,30.48
2018-05-23T13:12:52.100Z,31.02
2018-05-23T13:13:52.043Z,30.44
2018-05-23T13:14:51.985Z,30.71
2018-05-23T13:15:51.927Z,30.77
2018-05-23T13:16:51.870Z,30.97
2018-05-23T13:17:51.816Z,30.97
2018-05-23T13:18:51.757Z,30.56
2018-05-23T13:19:51.712Z,29.74
2018-05-23T13:20:51.794Z,28.91
2018-05-23T13:21:51.588Z,28.25
2018-05-23T13:22:51.532Z,27.92
2018-05-23T13:23:51.477Z,27.39
2018-05-23T13:24:51.417Z,26.68
2018-05-23T13:25:51.418Z,26.32
2018-05-23T13:26:51.303Z,26.20
2018-05-23T13:27:51.243Z,26.23
2018-05-23T13:28:51.183Z,26.28
2018-05-23T13:29:51.124Z,26.11
2018-05-23T13:30:51.065Z,26.08
2018-05-23T13:31:51.054Z,26.05
2018-05-23T13:32:50.944Z,26.07
2018-05-23T13:33:50.883Z,25.99
2018-05-23T13:34:50.825Z,25.96
2018-05-23T13:35:50.764Z,25.90
2018-05-23T13:36:50.701Z,25.94
2018-05-23T13:37:50.639Z,25.94
2018-05-23T13:38:50.600Z,25.92
2018-05-23T13:39:50.513Z,25.83
2018-05-23T13:40:50.453Z,25.79
2018-05-23T13:41:50.390Z,25.92
2018-05-23T13:42:50.327Z,25.84
2018-05-23T13:43:50.264Z,25.84
2018-05-23T13:44:50.205Z,25.79
2018-05-23T13:45:50.141Z,25.74
2018-05-23T13:46:50.076Z,25.74
2018-05-23T13:47:50.010Z,25.53
2018-05-23T13:48:49.948Z,25.64
2018-05-23T13:49:49.885Z,25.68
2018-05-23T13:50:49.822Z,25.74
2018-05-23T13:51:49.907Z,25.87
2018-05-23T13:52:49.693Z,25.89
2018-05-23T13:53:49.631Z,25.84
2018-05-23T13:54:49.566Z,25.84
2018-05-23T13:55:49.502Z,25.90
2018-05-23T13:56:49.438Z,25.86
2018-05-23T13:57:49.374Z,25.83
2018-05-23T13:58:49.310Z,25.79
2018-05-23T13:59:49.246Z,25.78
2018-05-23T14:00:49.185Z,25.86
2018-05-23T14:01:49.172Z,25.93
2018-05-23T14:02:49.054Z,26.08
2018-05-23T14:03:48.989Z,26.16
2018-05-23T14:04:48.927Z,26.23
2018-05-23T14:05:48.861Z,26.61
2018-05-23T14:06:48.796Z,26.72
2018-05-23T14:07:48.732Z,26.97
2018-05-23T14:08:48.669Z,27.26
2018-05-23T14:09:48.618Z,27.49
2018-05-23T14:10:48.542Z,27.41
2018-05-23T14:11:48.476Z,27.64
2018-05-23T14:12:48.414Z,27.62
2018-05-23T14:13:48.350Z,27.36
2018-05-23T14:14:48.285Z,27.34
2018-05-23T14:15:48.223Z,27.20
2018-05-23T14:16:48.159Z,27.29
2018-05-23T14:17:48.096Z,27.05
2018-05-23T14:18:48.033Z,27.02
2018-05-23T14:19:47.969Z,26.95
2018-05-23T14:20:47.907Z,26.79
2018-05-23T14:21:47.842Z,26.72
2018-05-23T14:22:47.779Z,26.89
2018-05-23T14:23:47.717Z,27.01
2018-05-23T14:24:47.652Z,27.16
2018-05-23T14:25:47.587Z,27.29
2018-05-23T14:26:47.527Z,27.32
2018-05-23T14:27:47.464Z,27.50
2018-05-23T14:28:47.395Z,27.64
2018-05-23T14:29:47.332Z,27.80
2018-05-23T14:30:47.268Z,27.64
2018-05-23T14:31:47.204Z,27.51
2018-05-23T14:32:47.139Z,27.17
2018-05-23T14:33:47.077Z,26.95
2018-05-23T14:34:47.013Z,26.76
2018-05-23T14:35:47.018Z,26.53
2018-05-23T14:36:46.884Z,26.55
2018-05-23T14:37:46.820Z,26.52
2018-05-23T14:38:46.756Z,26.35
2018-05-23T14:39:46.692Z,25.75
2018-05-23T14:40:46.627Z,25.20
2018-05-23T14:41:46.563Z,24.57
2018-05-23T14:42:46.498Z,24.16
2018-05-23T14:43:46.467Z,23.78
2018-05-23T14:44:46.373Z,23.74
2018-05-23T14:45:46.302Z,23.68
2018-05-23T14:46:46.237Z,23.46
2018-05-23T14:47:46.175Z,23.23
2018-05-23T14:48:46.105Z,23.11
2018-05-23T14:49:46.039Z,23.04
2018-05-23T14:50:45.973Z,23.02
2018-05-23T14:51:45.906Z,22.83
2018-05-23T14:52:45.840Z,22.60
2018-05-23T14:53:45.771Z,22.49
2018-05-23T14:54:45.706Z,22.37
2018-05-23T14:55:45.637Z,21.86
2018-05-23T14:56:45.572Z,20.93
2018-05-23T14:57:45.505Z,20.43
2018-05-23T14:58:45.436Z,19.71
2018-05-23T14:59:45.368Z,19.27
2018-05-23T15:00:45.300Z,18.76
2018-05-23T15:01:45.231Z,18.55
2018-05-23T15:02:45.163Z,18.31
2018-05-23T15:03:45.094Z,18.14
2018-05-23T15:04:45.026Z,18.11
2018-05-23T15:05:44.955Z,18.06
2018-05-23T15:06:44.886Z,17.77
2018-05-23T15:07:44.813Z,17.77
2018-05-23T15:08:44.746Z,17.85
2018-05-23T15:09:44.676Z,17.85
2018-05-23T15:10:44.605Z,17.76
2018-05-23T15:11:44.534Z,17.71
2018-05-23T15:12:44.465Z,17.79
2018-05-23T15:13:44.395Z,17.85
2018-05-23T15:14:44.333Z,17.82
2018-05-23T15:15:44.252Z,17.73
2018-05-23T15:16:44.182Z,17.57
2018-05-23T15:17:44.111Z,17.64
2018-05-23T15:18:44.044Z,17.55
2018-05-23T15:19:44.060Z,17.32
2018-05-23T15:20:43.898Z,17.20
2018-05-23T15:21:43.826Z,17.15
2018-05-23T15:22:43.756Z,17.21
2018-05-23T15:23:43.687Z,17.23
2018-05-23T15:24:43.611Z,17.20
2018-05-23T15:25:43.540Z,17.28
2018-05-23T15:26:43.470Z,17.25
2018-05-23T15:27:43.397Z,17.17
2018-05-23T15:28:43.325Z,17.17
2018-05-23T15:29:43.254Z,17.17
2018-05-23T15:30:43.182Z,17.15
2018-05-23T15:31:43.111Z,17.17
2018-05-23T15:32:43.037Z,17.17
2018-05-23T15:33:42.968Z,17.07
2018-05-23T15:34:42.896Z,17.14
2018-05-23T15:35:42.858Z,17.07
2018-05-23T15:36:42.752Z,17.13
2018-05-23T15:37:42.679Z,17.10
2018-05-23T15:38:42.609Z,17.13
2018-05-23T15:39:42.537Z,17.03
2018-05-23T15:40:42.466Z,17.08
2018-05-23T15:41:42.423Z,17.13
2018-05-23T15:42:42.324Z,17.08
2018-05-23T15:43:42.251Z,17.18
2018-05-23T15:44:42.179Z,17.17
2018-05-23T15:45:42.107Z,17.18
2018-05-23T15:46:42.037Z,17.17
2018-05-23T15:47:41.963Z,17.18
2018-05-23T15:48:41.891Z,17.20
2018-05-23T15:49:41.821Z,17.18
2018-05-23T15:50:41.748Z,17.21
2018-05-23T15:51:41.677Z,17.18
2018-05-23T15:52:41.604Z,17.28
2018-05-23T15:53:41.532Z,17.15
2018-05-23T15:54:41.462Z,17.20
2018-05-23T15:55:41.389Z,17.33
2018-05-23T15:56:41.318Z,17.28
2018-05-23T15:57:41.246Z,17.28
2018-05-23T15:58:41.174Z,17.26
2018-05-23T15:59:41.105Z,17.29
2018-05-23T16:00:41.031Z,17.28
2018-05-23T16:01:40.961Z,17.29
2018-05-23T16:02:40.889Z,17.29
2018-05-23T16:03:40.816Z,17.40
2018-05-23T16:04:40.744Z,17.46
2018-05-23T16:05:40.674Z,17.43
2018-05-23T16:06:40.611Z,17.43
2018-05-23T16:07:40.529Z,17.50
2018-05-23T16:08:40.460Z,17.53
2018-05-23T16:09:40.387Z,17.53
2018-05-23T16:10:40.317Z,17.55
2018-05-23T16:11:40.243Z,17.50
2018-05-23T16:12:40.171Z,17.57
2018-05-23T16:13:40.102Z,17.67
2018-05-23T16:14:40.095Z,17.67
2018-05-23T16:15:39.957Z,17.70
2018-05-23T16:16:39.886Z,17.70
2018-05-23T16:17:39.816Z,17.71
2018-05-23T16:18:39.744Z,17.70
2018-05-23T16:19:39.672Z,17.67
2018-05-23T16:20:39.660Z,17.67
2018-05-23T16:21:39.531Z,17.73
2018-05-23T16:22:39.459Z,17.74
2018-05-23T16:23:39.386Z,17.79
2018-05-23T16:24:39.348Z,17.85
2018-05-23T16:25:39.245Z,17.82
2018-05-23T16:26:39.175Z,17.79
2018-05-23T16:27:39.102Z,17.79
2018-05-23T16:28:39.034Z,17.76
2018-05-23T16:29:38.961Z,17.74
2018-05-23T16:30:38.890Z,17.85
2018-05-23T16:31:38.817Z,17.88
2018-05-23T16:32:38.746Z,17.85
2018-05-23T16:33:38.678Z,17.84
2018-05-23T16:34:38.604Z,17.79
2018-05-23T16:35:38.532Z,17.79
2018-05-23T16:36:38.461Z,17.84
2018-05-23T16:37:38.390Z,17.77
2018-05-23T16:38:38.319Z,17.92
2018-05-23T16:39:38.248Z,17.95
2018-05-23T16:40:38.177Z,17.95
2018-05-23T16:41:38.105Z,17.88
2018-05-23T16:42:38.035Z,17.94
2018-05-23T16:43:37.962Z,17.96
2018-05-23T16:44:37.892Z,17.98
2018-05-23T16:45:37.822Z,17.88
2018-05-23T16:46:37.750Z,17.89
2018-05-23T16:47:37.678Z,17.94
2018-05-23T16:48:37.608Z,17.95
2018-05-23T16:49:37.537Z,17.91
2018-05-23T16:50:37.466Z,17.96
2018-05-23T16:51:37.395Z,17.96
2018-05-23T16:52:37.324Z,17.95
2018-05-23T16:53:37.252Z,17.96
2018-05-23T16:54:37.182Z,17.98
2018-05-23T16:55:37.114Z,18.00
2018-05-23T16:56:37.041Z,17.98
2018-05-23T16:57:36.969Z,18.00
2018-05-23T16:58:36.898Z,18.00
2018-05-23T16:59:36.827Z,17.98
2018-05-23T17:00:36.756Z,17.91
2018-05-23T17:01:36.686Z,17.92
2018-05-23T17:02:36.613Z,17.98
2018-05-23T17:03:36.543Z,17.94
2018-05-23T17:04:36.473Z,17.91
2018-05-23T17:05:36.401Z,17.94
2018-05-23T17:06:36.329Z,17.85
2018-05-23T17:07:36.258Z,17.94
2018-05-23T17:08:36.191Z,17.91
2018-05-23T17:09:36.122Z,17.98
2018-05-23T17:10:36.047Z,17.95
2018-05-23T17:11:36.041Z,17.89
2018-05-23T17:12:35.950Z,17.89
2018-05-23T17:13:35.833Z,17.82
2018-05-23T17:14:35.762Z,17.82
2018-05-23T17:15:35.694Z,17.74
2018-05-23T17:16:35.624Z,17.79
2018-05-23T17:17:35.556Z,17.82
2018-05-23T17:18:35.476Z,17.71
2018-05-23T17:19:35.406Z,17.69
2018-05-23T17:20:35.338Z,17.73
2018-05-23T17:21:35.264Z,17.70
2018-05-23T17:22:35.193Z,17.67
2018-05-23T17:23:35.123Z,17.74
2018-05-23T17:24:35.050Z,17.71
2018-05-23T17:25:34.979Z,17.67
2018-05-23T17:26:34.907Z,17.67
2018-05-23T17:27:34.837Z,17.69
2018-05-23T17:28:34.766Z,17.76
2018-05-23T17:29:34.696Z,17.77
2018-05-23T17:30:34.624Z,17.76
2018-05-23T17:31:34.552Z,17.71
2018-05-23T17:32:34.481Z,17.73
2018-05-23T17:33:34.500Z,17.66
2018-05-23T17:34:34.340Z,17.69
2018-05-23T17:35:34.267Z,17.69
2018-05-23T17:36:34.201Z,17.70
2018-05-23T17:37:34.125Z,17.70
2018-05-23T17:38:34.057Z,17.64
2018-05-23T17:39:33.984Z,17.67
2018-05-23T17:40:33.913Z,17.71
2018-05-23T17:41:33.841Z,17.70
2018-05-23T17:42:33.772Z,17.69
2018-05-23T17:43:33.699Z,17.70
2018-05-23T17:44:33.629Z,17.76
2018-05-23T17:45:33.558Z,17.71
2018-05-23T17:46:33.487Z,17.70
2018-05-23T17:47:33.416Z,17.70
2018-05-23T17:48:33.344Z,17.69
2018-05-23T17:49:33.273Z,17.66
2018-05-23T17:50:33.207Z,17.70
2018-05-23T17:51:33.130Z,17.71
2018-05-23T17:52:33.060Z,17.67
2018-05-23T17:53:32.989Z,17.69
2018-05-23T17:54:32.921Z,17.70
2018-05-23T17:55:32.847Z,17.73
2018-05-23T17:56:32.780Z,17.64
2018-05-23T17:57:32.709Z,17.58
2018-05-23T17:58:32.634Z,17.55
2018-05-23T17:59:32.562Z,17.51
2018-05-23T18:00:32.496Z,17.64
2018-05-23T18:01:32.422Z,17.48
2018-05-23T18:02:32.349Z,17.50
2018-05-23T18:03:32.277Z,17.53
2018-05-23T18:04:32.210Z,17.43
2018-05-23T18:05:32.137Z,17.40
2018-05-23T18:06:32.067Z,17.47
2018-05-23T18:07:31.992Z,17.39
2018-05-23T18:08:31.925Z,17.43
2018-05-23T18:09:31.850Z,17.29
2018-05-23T18:10:31.778Z,17.36
2018-05-23T18:11:31.705Z,17.36
2018-05-23T18:12:31.636Z,17.36
2018-05-23T18:13:31.566Z,17.36
2018-05-23T18:14:31.496Z,17.33
2018-05-23T18:15:31.425Z,17.35
2018-05-23T18:16:31.352Z,17.38
2018-05-23T18:17:31.280Z,17.30
2018-05-23T18:18:31.209Z,17.33
2018-05-23T18:19:31.137Z,17.28
2018-05-23T18:20:31.084Z,17.18
2018-05-23T18:21:30.999Z,17.23
2018-05-23T18:22:30.926Z,17.29
2018-05-23T18:23:30.956Z,17.17
2018-05-23T18:24:30.780Z,17.20
2018-05-23T18:25:30.712Z,17.17
2018-05-23T18:26:30.641Z,17.07
2018-05-23T18:27:30.570Z,17.17
2018-05-23T18:28:30.520Z,17.13
2018-05-23T18:29:30.522Z,17.15
2018-05-23T18:30:30.354Z,17.17
2018-05-23T18:31:30.283Z,17.11
2018-05-23T18:32:30.208Z,17.08
2018-05-23T18:33:30.141Z,17.20
2018-05-23T18:34:30.066Z,17.10
2018-05-23T18:35:29.993Z,17.11
2018-05-23T18:36:29.923Z,17.10
2018-05-23T18:37:29.852Z,17.07
2018-05-23T18:38:29.780Z,17.10
2018-05-23T18:39:29.706Z,17.13
2018-05-23T18:40:29.636Z,17.00
2018-05-23T18:41:29.566Z,16.93
2018-05-23T18:42:29.495Z,16.95
2018-05-23T18:43:29.528Z,17.03
2018-05-23T18:44:29.349Z,17.03
2018-05-23T18:45:29.278Z,16.99
2018-05-23T18:46:29.208Z,16.99
2018-05-23T18:47:29.138Z,16.95
2018-05-23T18:48:29.070Z,16.98
2018-05-23T18:49:29.052Z,16.99
2018-05-23T18:50:28.921Z,16.95
2018-05-23T18:51:28.849Z,16.84
2018-05-23T18:52:28.777Z,16.89
2018-05-23T18:53:28.705Z,16.81
2018-05-23T18:54:28.677Z,16.73
2018-05-23T18:55:28.562Z,16.77
2018-05-23T18:56:28.490Z,16.71
2018-05-23T18:57:28.419Z,16.67
2018-05-23T18:58:28.348Z,16.70
2018-05-23T18:59:28.275Z,16.63
2018-05-23T19:00:28.203Z,16.60
2018-05-23T19:01:28.134Z,16.56
2018-05-23T19:02:28.061Z,16.59
2018-05-23T19:03:27.989Z,16.60
2018-05-23T19:04:27.916Z,16.56
2018-05-23T19:05:27.938Z,16.40
2018-05-23T19:06:27.774Z,16.47
2018-05-23T19:07:27.702Z,16.42
2018-05-23T19:08:27.628Z,16.48
2018-05-23T19:09:27.557Z,16.44
2018-05-23T19:10:27.484Z,16.33
2018-05-23T19:11:27.414Z,16.33
2018-05-23T19:12:27.341Z,16.27
2018-05-23T19:13:27.269Z,16.30
2018-05-23T19:14:27.197Z,16.23
2018-05-23T19:15:27.124Z,16.27
2018-05-23T19:16:27.053Z,16.26
2018-05-23T19:17:26.987Z,16.15
2018-05-23T19:18:26.910Z,16.14
2018-05-23T19:19:26.900Z,15.99
2018-05-23T19:20:26.769Z,16.06
2018-05-23T19:21:26.693Z,15.97
2018-05-23T19:22:26.621Z,15.97
2018-05-23T19:23:26.549Z,15.94
2018-05-23T19:24:26.480Z,15.88
2018-05-23T19:25:26.405Z,15.86
2018-05-23T19:26:26.331Z,16.01
2018-05-23T19:27:26.259Z,15.94
2018-05-23T19:28:26.186Z,15.91
2018-05-23T19:29:26.116Z,15.92
2018-05-23T19:30:26.044Z,15.89
2018-05-23T19:31:25.974Z,15.88
2018-05-23T19:32:25.900Z,15.76
2018-05-23T19:33:25.826Z,15.79
2018-05-23T19:34:25.754Z,15.68
2018-05-23T19:35:25.684Z,15.75
2018-05-23T19:36:25.611Z,15.75
2018-05-23T19:37:25.537Z,15.70
2018-05-23T19:38:25.467Z,15.63
2018-05-23T19:39:25.393Z,15.59
2018-05-23T19:40:25.320Z,15.55
2018-05-23T19:41:25.248Z,15.53
2018-05-23T19:42:25.175Z,15.68
2018-05-23T19:43:25.102Z,15.66
2018-05-23T19:44:25.032Z,15.61
2018-05-23T19:45:24.958Z,15.59
2018-05-23T19:46:24.885Z,15.59
2018-05-23T19:47:24.884Z,15.59
2018-05-23T19:48:24.738Z,15.57
2018-05-23T19:49:24.667Z,15.60
2018-05-23T19:50:24.596Z,15.52
2018-05-23T19:51:24.520Z,15.61
2018-05-23T19:52:24.450Z,15.52
2018-05-23T19:53:24.380Z,15.53
2018-05-23T19:54:24.305Z,15.57
2018-05-23T19:55:24.233Z,15.48
2018-05-23T19:56:24.159Z,15.45
2018-05-23T19:57:24.088Z,15.52
2018-05-23T19:58:24.018Z,15.49
2018-05-23T19:59:23.940Z,15.51
2018-05-23T20:00:23.869Z,15.46
2018-05-23T20:01:23.796Z,15.52
2018-05-23T20:02:23.728Z,15.57
2018-05-23T20:03:23.651Z,15.61
2018-05-23T20:04:23.579Z,15.57
2018-05-23T20:05:23.512Z,15.51
2018-05-23T20:06:23.434Z,15.63
2018-05-23T20:07:23.361Z,15.59
2018-05-23T20:08:23.410Z,15.67
2018-05-23T20:09:23.216Z,15.67
2018-05-23T20:10:23.142Z,15.71
2018-05-23T20:11:23.070Z,15.61
2018-05-23T20:12:22.998Z,15.61
2018-05-23T20:13:22.925Z,15.70
2018-05-23T20:14:22.869Z,15.66
2018-05-23T20:15:22.780Z,15.70
2018-05-23T20:16:22.707Z,15.61
2018-05-23T20:17:22.635Z,15.66
2018-05-23T20:18:22.563Z,15.59
2018-05-23T20:19:22.489Z,15.71
2018-05-23T20:20:22.421Z,15.63
2018-05-23T20:21:22.345Z,15.64
2018-05-23T20:22:22.270Z,15.61
2018-05-23T20:23:22.199Z,15.67
2018-05-23T20:24:22.126Z,15.67
2018-05-23T20:25:22.054Z,15.67
2018-05-23T20:26:21.982Z,15.68
2018-05-23T20:27:21.908Z,15.63
2018-05-23T20:28:21.836Z,15.64
2018-05-23T20:29:21.786Z,15.67
2018-05-23T20:30:21.693Z,15.63
2018-05-23T20:31:21.618Z,15.63
2018-05-23T20:32:21.546Z,15.68
2018-05-23T20:33:21.474Z,15.70
2018-05-23T20:34:21.402Z,15.68
2018-05-23T20:35:21.414Z,15.67
2018-05-23T20:36:21.256Z,15.67
2018-05-23T20:37:21.183Z,15.66